Time;durP1;ratioP1;P1;durP2;ratioP2;P2;SDS_P1;SDS_P2;PMS_P1;PMS_P2;Temp;Humidity;BMP_temperature;BMP_pressure;BME280_temperature;BME280_humidity;BME280_pressure;Samples;Min_cycle;Max_cycle;Signal;HPM_P1;HPM_P2
2022/02/03 00:01:11;;;;;;;60.03;27.40;;;;;;;3.74;76.50;99880.06;1736579;80;21418;-64
2022/02/03 00:04:16;;;;;;;65.22;28.32;;;;;;;3.76;76.55;99875.89;1719668;81;21219;-64
2022/02/03 00:07:29;;;;;;;59.55;28.12;;;;;;;3.77;76.60;99878.94;1735041;82;21375;-65
2022/02/03 00:24:15;;;;;;;62.13;29.55;;;;;;;3.73;77.27;99885.14;1735035;81;21389;-64
2022/02/03 00:34:03;;;;;;;74.95;32.75;;;;;;;3.73;76.96;99881.08;1734961;81;21259;-64
2022/02/03 00:50:26;;;;;;;89.52;35.38;;;;;;;3.84;77.66;99866.52;1734932;81;21393;-64
2022/02/03 00:53:29;;;;;;;80.92;33.63;;;;;;;3.84;77.46;99867.38;1735030;82;21358;-65
2022/02/03 00:56:43;;;;;;;89.60;35.78;;;;;;;3.81;77.30;99865.45;1734971;82;21386;-64
2022/02/03 01:00:07;;;;;;;83.27;34.58;;;;;;;3.76;77.14;99867.25;1735148;81;21354;-64
2022/02/03 01:03:21;;;;;;;89.17;34.65;;;;;;;3.73;77.31;99872.95;1751413;82;21254;-64
2022/02/03 01:06:28;;;;;;;83.78;35.03;;;;;;;3.72;77.47;99870.40;1751535;81;21234;-64
2022/02/03 01:09:48;;;;;;;97.95;39.78;;;;;;;3.69;77.50;99866.14;1751321;80;21231;-65
2022/02/03 01:17:03;;;;;;;90.07;33.90;;;;;;;3.71;78.19;99872.23;1751111;81;21188;-65
2022/02/03 01:43:20;;;;;;;95.25;35.48;;;;;;;3.79;78.01;99877.78;1751431;81;20199;-64
2022/02/03 01:46:11;;;;;;;102.75;36.28;;;;;;;3.76;78.01;99879.95;1751439;82;21700;-65
2022/02/03 01:49:15;;;;;;;100.55;35.30;;;;;;;3.77;78.07;99876.23;1751130;80;21223;-64
2022/02/03 01:52:19;;;;;;;106.78;38.02;;;;;;;3.76;78.18;99876.72;1751539;81;21206;-65
2022/02/03 01:55:29;;;;;;;97.45;34.55;;;;;;;3.76;78.11;99882.66;1752287;80;21227;-64
2022/02/03 01:58:53;;;;;;;118.65;35.58;;;;;;;3.74;77.96;99877.36;1751357;80;21207;-64
2022/02/03 02:02:08;;;;;;;103.72;34.45;;;;;;;3.72;78.08;99875.32;1746558;80;21251;-63
2022/02/03 02:05:43;;;;;;;88.80;32.45;;;;;;;3.71;78.14;99874.95;1738120;81;21208;-64
2022/02/03 02:09:04;;;;;;;103.05;36.03;;;;;;;3.60;77.84;99872.92;1738702;81;21342;-64
2022/02/03 02:12:52;;;;;;;134.15;46.42;;;;;;;3.37;77.83;99875.06;1740002;82;21220;-64
2022/02/03 02:16:09;;;;;;;138.70;48.45;;;;;;;3.37;78.79;99868.30;1738325;81;21279;-65
2022/02/03 02:19:21;;;;;;;125.90;39.30;;;;;;;3.45;79.29;99872.50;1738205;81;21192;-64
2022/02/03 02:43:37;;;;;;;103.80;37.28;;;;;;;3.59;79.38;99886.08;1738455;82;21427;-64
2022/02/03 02:46:52;;;;;;;117.60;36.53;;;;;;;3.59;79.58;99884.72;1739345;82;21255;-65
2022/02/03 02:50:13;;;;;;;107.50;37.30;;;;;;;3.61;79.59;99889.50;1739083;81;21353;-65
2022/02/03 02:56:40;;;;;;;118.57;35.75;;;;;;;3.65;79.70;99877.38;1727426;82;21192;-65
2022/02/03 03:04:03;;;;;;;131.52;36.00;;;;;;;3.65;79.54;99882.30;1739478;80;21211;-64
2022/02/03 03:31:01;;;;;;;134.50;43.30;;;;;;;3.39;80.53;99883.03;1738123;81;21362;-64
2022/02/03 03:34:07;;;;;;;133.63;40.63;;;;;;;3.45;80.75;99879.27;1738181;81;21211;-64
2022/02/03 03:37:09;;;;;;;129.53;41.05;;;;;;;3.49;80.72;99877.13;1738106;82;21347;-63
2022/02/03 03:40:16;;;;;;;154.63;38.38;;;;;;;3.51;80.75;99884.09;1738085;81;21232;-66
2022/02/03 03:43:23;;;;;;;126.95;39.10;;;;;;;3.54;80.69;99882.45;1738095;82;21389;-65
2022/02/03 03:46:42;;;;;;;117.08;37.83;;;;;;;3.55;80.58;99882.80;1738191;82;21378;-65
2022/02/03 03:49:49;;;;;;;124.20;36.55;;;;;;;3.57;80.50;99887.57;1738209;81;21232;-64
2022/02/03 03:53:03;;;;;;;115.57;35.52;;;;;;;3.58;80.38;99892.01;1738204;82;21173;-64
2022/02/03 03:56:12;;;;;;;114.10;33.60;;;;;;;3.54;80.08;99891.92;1738162;82;21333;-65
2022/02/03 05:03:58;;;;;;;54.00;25.02;;;;;;;3.61;79.44;99952.61;1691711;83;21335;-64
2022/02/03 05:08:03;;;;;;;;;;;;;;;3.62;79.29;99967.83;1704227;84;21418;-64
2022/02/03 05:11:22;;;;;;;55.03;25.35;;;;;;;3.62;79.14;99965.13;1694122;83;20278;-65
2022/02/03 05:23:20;;;;;;;60.35;25.55;;;;;;;3.55;78.82;99972.61;1701162;84;21394;-64
2022/02/03 05:27:07;;;;;;;56.65;25.30;;;;;;;3.53;78.61;99978.16;1701178;84;21331;-64
2022/02/03 05:44:51;;;;;;;50.03;22.27;;;;;;;3.52;78.96;100015.66;1725334;82;21229;-65
2022/02/03 06:06:27;;;;;;;36.03;18.10;;;;;;;3.61;78.18;100032.44;1731094;81;21190;-63
2022/02/03 06:15:12;;;;;;;35.58;17.65;;;;;;;3.71;77.48;100031.92;1717200;82;21259;-64
2022/02/03 06:21:49;;;;;;;32.60;18.00;;;;;;;3.70;77.22;100039.70;1725857;82;21199;-64
2022/02/03 06:27:25;;;;;;;35.13;17.57;;;;;;;3.72;77.11;100039.07;1703322;83;21278;-62
2022/02/03 06:28:00;;;;;;;35.28;17.98;;;;;;;3.74;77.13;100039.76;1703792;83;21242;-63
2022/02/03 06:31:07;;;;;;;33.28;16.27;;;;;;;3.79;76.96;100032.08;1712654;82;21259;-63
2022/02/03 06:34:12;;;;;;;34.30;15.98;;;;;;;3.83;76.73;100035.36;1678818;83;21242;-62
2022/02/03 06:37:19;;;;;;;32.42;16.15;;;;;;;3.85;76.50;100040.14;1734552;82;21179;-63
2022/02/03 06:40:25;;;;;;;32.83;16.93;;;;;;;3.85;76.37;100042.36;1731922;81;21213;-63
2022/02/03 06:43:39;;;;;;;30.25;16.02;;;;;;;3.86;76.32;100048.13;1733333;82;21207;-65
2022/02/03 06:46:49;;;;;;;30.95;17.45;;;;;;;3.88;76.19;100049.34;1671413;85;21193;-63
2022/02/03 06:50:09;;;;;;;36.30;18.48;;;;;;;3.89;76.06;100046.48;1679573;83;21241;-65
2022/02/03 06:53:21;;;;;;;32.95;17.73;;;;;;;3.92;75.87;100054.31;1689641;84;21207;-63
2022/02/03 06:56:36;;;;;;;44.90;20.48;;;;;;;3.94;75.73;100042.86;1700786;84;21284;-63
2022/02/03 06:59:44;;;;;;;53.28;25.00;;;;;;;3.93;75.66;100050.60;1672047;84;21253;-61
2022/02/03 07:02:45;;;;;;;51.50;23.98;;;;;;;3.92;75.34;100049.39;1727880;82;21196;-64
2022/02/03 07:05:52;;;;;;;50.30;24.80;;;;;;;3.90;75.31;100044.64;1713504;82;21282;-63
2022/02/03 07:08:59;;;;;;;52.33;24.70;;;;;;;3.90;75.42;100044.12;1733548;82;21397;-62
2022/02/03 07:12:06;;;;;;;48.87;23.90;;;;;;;3.93;75.49;100047.89;1715845;82;21274;-62
2022/02/03 07:15:13;;;;;;;49.63;26.95;;;;;;;3.96;75.51;100038.66;1719683;82;21215;-63
2022/02/03 07:18:19;;;;;;;52.10;26.40;;;;;;;3.97;75.28;100041.70;1731913;81;21239;-63
2022/02/03 07:21:25;;;;;;;50.63;25.02;;;;;;;3.99;75.43;100057.31;1731926;82;21355;-63
2022/02/03 07:24:33;;;;;;;49.48;24.35;;;;;;;4.00;75.28;100054.47;1717650;82;21569;-63
2022/02/03 07:27:40;;;;;;;53.08;24.87;;;;;;;4.03;75.14;100052.82;1740466;82;21654;-63
2022/02/03 07:30:45;;;;;;;51.90;24.02;;;;;;;4.02;74.85;100057.89;1742173;81;21393;-64
2022/02/03 07:33:54;;;;;;;59.50;30.52;;;;;;;4.03;74.67;100059.59;1734016;82;21875;-64
2022/02/03 07:37:00;;;;;;;51.05;25.20;;;;;;;4.03;74.70;100070.42;1742345;82;21860;-64
2022/02/03 07:40:06;;;;;;;55.52;27.30;;;;;;;4.09;74.99;100067.66;1742035;81;21220;-63
2022/02/03 07:43:15;;;;;;;51.75;26.95;;;;;;;4.17;75.26;100074.05;1741600;81;21183;-63
2022/02/03 07:46:20;;;;;;;52.03;26.77;;;;;;;4.30;75.34;100075.12;1740231;81;21326;-62
2022/02/03 07:49:29;;;;;;;49.25;24.75;;;;;;;4.42;75.17;100074.81;1733401;82;21708;-63
2022/02/03 07:52:33;;;;;;;50.58;26.50;;;;;;;4.51;74.84;100075.33;1741760;82;21191;-62
2022/02/03 07:55:38;;;;;;;51.37;24.35;;;;;;;4.58;74.45;100081.86;1741984;81;21728;-63
2022/02/03 07:58:45;;;;;;;52.03;24.92;;;;;;;4.59;73.94;100072.75;1742258;81;21210;-62
2022/02/03 08:01:52;;;;;;;66.07;32.88;;;;;;;4.55;73.63;100074.55;1742993;82;21801;-62
2022/02/03 08:05:02;;;;;;;60.85;28.40;;;;;;;4.52;73.56;100067.53;1742649;81;21483;-61
2022/02/03 08:08:20;;;;;;;54.73;27.17;;;;;;;4.48;73.58;100063.42;1738858;81;21223;-64
2022/02/03 08:11:28;;;;;;;44.25;22.50;;;;;;;4.45;73.51;100066.42;1711531;82;21299;-62
2022/02/03 08:14:38;;;;;;;43.05;22.45;;;;;;;4.48;73.79;100079.69;1733685;81;21350;-62
2022/02/03 08:17:40;;;;;;;39.30;20.77;;;;;;;4.51;73.78;100078.53;1733404;82;21290;-62
2022/02/03 08:20:53;;;;;;;40.48;19.67;;;;;;;4.57;73.75;100076.58;1733693;81;21220;-63
2022/02/03 08:24:18;;;;;;;41.60;20.70;;;;;;;4.66;73.69;100073.02;1733549;81;21374;-63
2022/02/03 08:30:46;;;;;;;32.73;17.07;;;;;;;4.82;72.97;100071.88;1733561;81;21428;-62
2022/02/03 08:33:55;;;;;;;32.28;16.32;;;;;;;4.78;72.36;100071.84;1734075;82;21440;-62
2022/02/03 08:36:56;;;;;;;35.95;17.15;;;;;;;4.70;72.22;100078.98;1734347;82;21365;-62
2022/02/03 08:40:11;;;;;;;29.77;16.00;;;;;;;4.69;72.19;100074.57;1734799;82;21369;-62
2022/02/03 08:43:14;;;;;;;33.83;16.80;;;;;;;4.68;71.98;100071.52;1734169;82;21373;-62
2022/02/03 08:46:24;;;;;;;28.02;15.40;;;;;;;4.66;72.00;100066.73;1733568;82;21239;-61
2022/02/03 08:49:28;;;;;;;30.52;15.85;;;;;;;4.60;71.53;100070.38;1733372;82;21712;-62
2022/02/03 08:52:44;;;;;;;26.07;14.75;;;;;;;4.54;71.70;100070.10;1734823;82;21713;-63
2022/02/03 08:55:57;;;;;;;33.92;17.23;;;;;;;4.51;71.79;100076.68;1734298;81;21868;-62
2022/02/03 09:56:27;;;;;;;27.22;16.07;;;;;;;5.06;69.98;100058.67;1738684;82;21350;-64
2022/02/03 09:59:19;;;;;;;28.35;17.15;;;;;;;5.10;69.64;100051.10;1738923;81;21421;-63
2022/02/03 10:02:30;;;;;;;28.90;17.23;;;;;;;5.08;69.43;100059.88;1738193;82;21346;-63
2022/02/03 10:05:52;;;;;;;33.58;18.70;;;;;;;5.12;69.36;100062.67;1737141;81;21196;-64
2022/02/03 10:08:55;;;;;;;31.17;17.90;;;;;;;5.20;69.31;100064.97;1737449;81;21693;-63
2022/02/03 10:12:07;;;;;;;28.65;18.07;;;;;;;5.28;69.14;100063.72;1750864;81;21835;-65
2022/02/03 10:15:14;;;;;;;29.57;18.73;;;;;;;5.33;68.80;100061.41;1749830;80;21192;-63
2022/02/03 10:18:32;;;;;;;30.80;18.62;;;;;;;5.37;68.36;100067.40;1750262;81;21171;-64
2022/02/03 10:21:40;;;;;;;31.93;19.95;;;;;;;5.39;68.08;100065.39;1750263;81;21191;-64
2022/02/03 10:24:52;;;;;;;30.35;18.37;;;;;;;5.42;67.90;100065.09;1749896;80;21314;-65
2022/02/03 10:27:57;;;;;;;29.90;17.77;;;;;;;5.48;67.75;100062.62;1741469;82;21262;-63
2022/02/03 10:31:03;;;;;;;34.20;21.52;;;;;;;5.53;67.47;100064.89;1748249;81;21581;-63
2022/02/03 10:34:13;;;;;;;32.98;21.33;;;;;;;5.59;67.20;100067.85;1731536;82;21250;-64
2022/02/03 10:37:27;;;;;;;63.83;41.88;;;;;;;5.61;66.80;100063.09;1750033;81;21164;-63
2022/02/03 10:40:51;;;;;;;32.35;23.87;;;;;;;5.61;66.64;100054.13;1750200;81;21327;-64
2022/02/03 10:47:24;;;;;;;29.07;20.02;;;;;;;5.66;66.33;100057.23;1749781;82;21175;-63
2022/02/03 10:53:51;;;;;;;25.45;17.45;;;;;;;5.60;66.00;100068.69;1750540;81;21708;-63
2022/02/03 11:04:16;;;;;;;26.45;17.40;;;;;;;5.56;65.94;100070.01;1711726;84;21427;-63
2022/02/03 11:07:23;;;;;;;21.37;14.10;;;;;;;5.64;65.78;100078.25;1711801;83;21231;-63
2022/02/03 11:13:22;;;;;;;17.17;12.13;;;;;;;5.65;65.41;100075.38;1702006;83;21193;-63
2022/02/03 11:16:32;;;;;;;27.25;19.17;;;;;;;5.70;65.26;100080.35;1694813;84;21252;-63
2022/02/03 11:19:38;;;;;;;18.90;12.55;;;;;;;5.72;65.00;100081.06;1700947;83;21311;-63
2022/02/03 11:29:41;;;;;;;11.85;8.95;;;;;;;5.79;64.31;100074.00;1688084;83;21631;-63
2022/02/03 11:39:43;;;;;;;21.17;14.20;;;;;;;5.66;63.94;100076.25;1587249;89;21264;-63
2022/02/03 11:56:15;;;;;;;24.32;13.93;;;;;;;5.59;64.47;100079.20;1732594;81;21212;-62
2022/02/03 12:10:31;;;;;;;20.90;13.72;;;;;;;5.52;64.64;100073.52;1669139;85;21340;-65
2022/02/03 12:14:38;;;;;;;23.57;15.10;;;;;;;5.43;64.87;100070.86;1717085;81;21200;-62
2022/02/03 12:17:33;;;;;;;28.02;16.35;;;;;;;5.37;65.10;100064.69;1733503;82;21231;-62
2022/02/03 12:21:01;;;;;;;22.98;14.30;;;;;;;5.30;65.42;100064.43;1685121;83;21924;-63
2022/02/03 12:24:12;;;;;;;23.50;14.38;;;;;;;5.28;65.78;100066.95;1732925;81;21561;-63
2022/02/03 12:40:58;;;;;;;29.35;17.52;;;;;;;5.09;66.83;100086.02;1688574;83;21514;-63
2022/02/03 12:44:06;;;;;;;31.57;17.98;;;;;;;5.09;66.88;100092.80;1716016;82;21212;-63
2022/02/03 12:47:10;;;;;;;30.97;19.02;;;;;;;5.12;67.05;100085.20;1732742;82;21824;-63
2022/02/03 12:50:22;;;;;;;25.68;16.17;;;;;;;5.06;66.93;100069.52;1685951;83;21321;-64
2022/02/03 12:53:27;;;;;;;30.32;18.85;;;;;;;5.06;67.09;100080.38;1734115;82;21328;-63
2022/02/03 12:56:33;;;;;;;28.07;16.65;;;;;;;5.04;67.28;100078.83;1693808;82;21541;-64
2022/02/03 12:59:39;;;;;;;30.95;17.82;;;;;;;5.06;67.48;100084.45;1713750;82;21223;-65
2022/02/03 13:02:44;;;;;;;30.65;18.40;;;;;;;5.08;67.43;100087.00;1732569;82;21185;-63
2022/02/03 13:06:04;;;;;;;32.08;19.30;;;;;;;5.06;67.46;100098.53;1684073;83;21211;-64
2022/02/03 13:09:11;;;;;;;34.55;20.23;;;;;;;5.06;67.60;100090.39;1717584;82;21187;-63
2022/02/03 13:12:28;;;;;;;36.38;21.82;;;;;;;5.08;67.68;100100.08;1732148;82;21222;-63
2022/02/03 13:15:43;;;;;;;;;;;;;;;5.07;67.72;100096.16;1748297;82;21233;-63
2022/02/03 13:18:51;;;;;;;26.35;15.98;;;;;;;5.04;67.58;100101.88;1747450;81;20207;-63
2022/02/03 13:22:15;;;;;;;32.05;20.65;;;;;;;5.00;67.72;100101.31;1747273;82;21199;-64
2022/02/03 13:25:33;;;;;;;24.47;14.63;;;;;;;5.01;67.63;100109.80;1721125;82;21607;-62
2022/02/03 13:31:49;;;;;;;26.25;16.65;;;;;;;4.96;67.55;100114.83;1746735;81;21299;-64
2022/02/03 13:38:11;;;;;;;25.50;16.67;;;;;;;4.90;67.58;100119.98;1726040;82;21207;-63
2022/02/03 13:41:27;;;;;;;27.67;18.23;;;;;;;4.84;67.68;100116.47;1747887;81;21291;-64
2022/02/03 13:44:29;;;;;;;28.12;16.30;;;;;;;4.81;67.77;100117.64;1747117;82;21859;-64
2022/02/03 13:47:35;;;;;;;24.23;15.55;;;;;;;4.76;67.88;100115.02;1692278;82;21167;-64
2022/02/03 13:50:41;;;;;;;29.80;17.37;;;;;;;4.73;67.92;100122.06;1749663;82;21202;-63
2022/02/03 13:53:59;;;;;;;25.17;15.05;;;;;;;4.66;68.06;100115.04;1746741;80;21171;-63
2022/02/03 14:11:28;;;;;;;27.42;17.23;;;;;;;4.44;69.03;100118.89;1734565;80;21214;-64
2022/02/03 14:14:21;;;;;;;25.55;16.42;;;;;;;4.39;69.25;100117.11;1731280;79;21195;-64
2022/02/03 14:20:47;;;;;;;41.20;25.87;;;;;;;4.31;69.68;100124.26;1724265;82;21572;-63
2022/02/03 14:27:28;;;;;;;56.90;32.88;;;;;;;4.25;70.24;100124.84;1738760;82;21222;-63
2022/02/03 14:30:15;;;;;;;49.05;31.62;;;;;;;4.24;70.41;100124.45;1741225;82;21230;-64
2022/02/03 14:33:22;;;;;;;42.95;28.23;;;;;;;4.18;70.41;100123.19;1739290;82;21187;-62
2022/02/03 14:36:25;;;;;;;46.40;31.00;;;;;;;4.14;70.64;100131.71;1741542;81;21207;-63
2022/02/03 14:42:53;;;;;;;41.68;25.35;;;;;;;4.02;70.92;100133.72;1738020;82;21168;-64
2022/02/03 14:46:01;;;;;;;44.67;29.52;;;;;;;4.02;71.20;100143.69;1741657;81;21192;-64
2022/02/03 14:49:09;;;;;;;51.23;32.85;;;;;;;3.98;71.15;100137.69;1741335;81;22056;-64
2022/02/03 14:52:24;;;;;;;52.50;33.65;;;;;;;3.96;71.16;100134.28;1739881;81;21338;-64
2022/02/03 14:58:43;;;;;;;37.70;24.63;;;;;;;3.91;71.12;100137.91;1713170;82;21741;-63
2022/02/03 15:01:49;;;;;;;42.33;26.02;;;;;;;3.88;71.22;100140.89;1712829;83;21262;-63
2022/02/03 15:04:55;;;;;;;51.05;32.73;;;;;;;3.88;71.26;100140.89;1728058;82;21298;-65
2022/02/03 15:08:03;;;;;;;63.58;40.78;;;;;;;3.86;71.32;100140.66;1741933;82;21192;-64
2022/02/03 15:11:17;;;;;;;58.83;36.55;;;;;;;3.84;71.42;100145.34;1741447;82;21207;-63
2022/02/03 15:14:21;;;;;;;58.85;34.90;;;;;;;3.84;71.49;100150.27;1741851;81;21270;-65
2022/02/03 15:17:26;;;;;;;48.20;27.87;;;;;;;3.80;71.46;100152.92;1731919;82;21194;-64
2022/02/03 15:20:37;;;;;;;51.77;27.35;;;;;;;3.76;71.62;100153.34;1731679;81;21256;-64
2022/02/03 15:23:43;;;;;;;47.93;25.37;;;;;;;3.75;71.80;100151.12;1730618;81;21291;-63
2022/02/03 15:26:48;;;;;;;56.88;28.92;;;;;;;3.72;71.84;100150.53;1731081;83;21235;-63
2022/02/03 15:29:53;;;;;;;49.25;26.73;;;;;;;3.68;71.91;100159.42;1731903;81;21295;-64
2022/02/03 15:33:00;;;;;;;46.02;27.45;;;;;;;3.65;72.05;100152.06;1732847;82;21327;-64
2022/02/03 15:36:10;;;;;;;69.42;39.98;;;;;;;3.57;72.17;100167.64;1731971;82;21327;-63
2022/02/03 15:39:20;;;;;;;59.35;34.27;;;;;;;3.58;72.34;100165.31;1731749;81;21761;-64
2022/02/03 15:42:26;;;;;;;50.80;29.37;;;;;;;3.54;72.28;100165.21;1732019;82;21323;-64
2022/02/03 15:45:39;;;;;;;54.55;31.62;;;;;;;3.53;72.41;100173.47;1731882;81;21338;-63
2022/02/03 15:48:57;;;;;;;41.48;24.45;;;;;;;3.47;72.37;100169.48;1732107;81;21323;-63
2022/02/03 16:18:32;;;;;;;52.78;29.60;;;;;;;3.16;73.55;100192.08;1751044;80;21168;-63
2022/02/03 16:21:42;;;;;;;51.77;28.65;;;;;;;3.09;73.40;100197.68;1753220;80;21314;-63
2022/02/03 16:24:50;;;;;;;49.85;26.75;;;;;;;3.02;73.53;100200.54;1749981;82;21180;-64
2022/02/03 16:42:20;;;;;;;52.67;30.60;;;;;;;3.18;74.08;100186.05;1746619;82;21238;-63
2022/02/03 16:51:44;;;;;;;67.70;34.00;;;;;;;3.27;74.14;100185.23;1751360;81;21200;-63
2022/02/03 16:54:39;;;;;;;55.75;28.80;;;;;;;3.30;74.12;100184.96;1750696;82;21261;-64
2022/02/03 16:57:48;;;;;;;54.90;28.45;;;;;;;3.32;74.17;100186.17;1751274;81;21799;-63
2022/02/03 17:00:59;;;;;;;55.33;28.73;;;;;;;3.33;74.07;100186.56;1750837;81;21210;-64
2022/02/03 17:04:01;;;;;;;55.75;28.98;;;;;;;3.34;74.15;100185.07;1721240;82;21392;-64
2022/02/03 17:07:08;;;;;;;55.78;29.27;;;;;;;3.36;74.21;100192.56;1720466;83;22025;-64
2022/02/03 17:10:15;;;;;;;60.15;30.60;;;;;;;3.39;74.15;100195.48;1701442;83;21214;-64
2022/02/03 17:13:21;;;;;;;61.15;29.30;;;;;;;3.39;74.23;100199.05;1702152;83;21349;-64
2022/02/03 17:16:27;;;;;;;59.90;28.95;;;;;;;3.40;74.27;100196.70;1721783;82;21247;-64
2022/02/03 17:19:32;;;;;;;59.30;30.50;;;;;;;3.41;74.27;100198.40;1720778;82;21408;-63
2022/02/03 17:22:42;;;;;;;60.75;32.40;;;;;;;3.42;74.35;100191.15;1722724;82;21250;-63
2022/02/03 17:25:53;;;;;;;54.10;28.52;;;;;;;3.44;74.39;100185.12;1720905;82;21247;-64
2022/02/03 17:29:14;;;;;;;65.30;30.57;;;;;;;3.43;74.35;100184.25;1721165;82;21294;-63
2022/02/03 17:32:18;;;;;;;55.73;28.52;;;;;;;3.41;74.41;100190.80;1721408;83;21191;-63
2022/02/03 18:09:16;;;;;;;65.52;31.48;;;;;;;3.30;75.85;100171.44;1721531;82;21349;-63
2022/02/03 18:25:57;;;;;;;81.20;37.45;;;;;;;3.34;76.53;100173.38;1708433;82;21393;-62
2022/02/03 18:32:39;;;;;;;85.47;36.20;;;;;;;3.27;76.75;100178.98;1708563;84;21720;-63
2022/02/03 18:35:53;;;;;;;88.50;37.85;;;;;;;3.21;76.99;100179.50;1709363;82;21354;-62
2022/02/03 18:55:30;;;;;;;68.70;33.83;;;;;;;3.02;78.00;100165.39;1709095;82;21369;-63
2022/02/03 19:13:08;;;;;;;42.20;22.52;;;;;;;2.78;78.08;100176.97;1737854;82;21350;-63
2022/02/03 19:25:59;;;;;;;30.20;18.95;;;;;;;2.72;78.34;100184.25;1735225;82;21248;-64
2022/02/03 20:05:57;;;;;;;25.52;18.48;;;;;;;2.26;76.86;100204.84;1646049;86;21406;-63
2022/02/03 20:12:16;;;;;;;26.12;17.67;;;;;;;2.02;75.81;100214.97;1706048;83;21716;-63
2022/02/03 20:15:24;;;;;;;26.35;17.73;;;;;;;1.93;75.74;100208.98;1705982;83;21232;-65
2022/02/03 20:18:31;;;;;;;26.42;19.42;;;;;;;1.86;75.38;100220.37;1659404;85;21285;-63
2022/02/03 20:21:37;;;;;;;34.63;24.18;;;;;;;1.80;75.39;100215.49;1706281;82;21350;-62
2022/02/03 20:24:42;;;;;;;28.12;20.68;;;;;;;1.79;75.63;100224.10;1705706;83;21275;-65
2022/02/03 20:27:49;;;;;;;37.85;29.90;;;;;;;1.82;75.74;100226.55;1689881;84;21187;-64
2022/02/03 20:30:55;;;;;;;43.98;34.15;;;;;;;1.84;75.70;100241.26;1646076;86;21244;-63
2022/02/03 20:34:03;;;;;;;34.20;24.82;;;;;;;1.79;75.50;100220.53;1658426;85;21399;-63
2022/02/03 20:37:08;;;;;;;29.40;20.43;;;;;;;1.72;75.39;100228.74;1705404;83;21381;-62
2022/02/03 20:40:18;;;;;;;25.37;16.55;;;;;;;1.66;75.20;100234.64;1652155;85;21258;-63
2022/02/03 20:43:24;;;;;;;21.87;15.10;;;;;;;1.58;74.77;100247.88;1690048;84;21354;-63
2022/02/03 20:46:32;;;;;;;23.02;15.45;;;;;;;1.46;74.52;100251.92;1705743;83;21338;-63
2022/02/03 20:49:39;;;;;;;23.90;16.73;;;;;;;1.38;74.64;100247.63;1660805;85;21325;-63
2022/02/03 20:52:45;;;;;;;22.30;15.08;;;;;;;1.37;74.65;100252.66;1706039;83;21353;-64
2022/02/03 20:55:52;;;;;;;23.67;16.90;;;;;;;1.36;74.70;100251.44;1705658;83;21342;-62
2022/02/03 20:59:03;;;;;;;23.20;15.18;;;;;;;1.37;74.66;100253.14;1646131;86;21706;-63
2022/02/03 21:02:11;;;;;;;24.30;15.55;;;;;;;1.41;74.76;100257.33;1658287;86;21377;-62
2022/02/03 21:05:16;;;;;;;22.55;15.90;;;;;;;1.46;74.81;100257.31;1705792;82;21286;-63
2022/02/03 21:08:30;;;;;;;25.02;15.60;;;;;;;1.55;74.80;100264.66;1625295;86;21214;-63
2022/02/03 21:11:31;;;;;;;22.67;16.00;;;;;;;1.63;74.67;100265.91;1705921;84;21247;-62
2022/02/03 21:14:38;;;;;;;23.77;16.90;;;;;;;1.66;74.44;100261.13;1705738;83;21863;-62
2022/02/03 21:17:45;;;;;;;24.37;16.62;;;;;;;1.66;74.17;100262.97;1706184;83;21350;-62
2022/02/03 21:20:51;;;;;;;22.85;16.90;;;;;;;1.61;73.86;100263.34;1646292;86;21280;-62
2022/02/03 21:23:59;;;;;;;21.42;15.03;;;;;;;1.52;73.72;100266.27;1655474;85;21309;-62
2022/02/03 21:27:14;;;;;;;23.98;16.60;;;;;;;1.47;73.56;100260.88;1705445;84;21349;-63
2022/02/03 21:30:17;;;;;;;21.60;15.38;;;;;;;1.38;73.33;100265.16;1705730;83;21381;-63
2022/02/03 21:33:33;;;;;;;25.05;16.35;;;;;;;1.31;73.43;100269.81;1689019;84;21454;-62
2022/02/03 21:36:38;;;;;;;23.10;16.15;;;;;;;1.29;73.50;100262.32;1705727;84;21358;-62
2022/02/03 21:39:42;;;;;;;23.65;15.58;;;;;;;1.29;73.54;100266.36;1705670;83;21369;-62
2022/02/03 21:42:49;;;;;;;25.30;16.30;;;;;;;1.29;73.52;100271.28;1705641;84;21891;-62
2022/02/03 21:45:54;;;;;;;27.27;17.15;;;;;;;1.27;73.50;100261.09;1686505;84;21324;-62
2022/02/03 21:49:05;;;;;;;23.57;15.50;;;;;;;1.26;73.46;100256.69;1705369;83;21385;-62
2022/02/03 21:52:19;;;;;;;23.95;15.75;;;;;;;1.27;73.46;100261.09;1705239;84;21286;-62
2022/02/03 21:55:20;;;;;;;26.23;17.65;;;;;;;1.24;73.40;100253.25;1688569;84;21222;-62
2022/02/03 21:58:26;;;;;;;26.85;17.45;;;;;;;1.24;73.50;100251.91;1705315;84;21775;-63
2022/02/03 22:01:34;;;;;;;27.32;16.75;;;;;;;1.22;73.47;100245.77;1705722;84;21353;-61
2022/02/03 22:04:41;;;;;;;24.60;17.05;;;;;;;1.19;73.39;100255.44;1705789;83;21223;-62
2022/02/03 22:07:52;;;;;;;27.00;16.42;;;;;;;1.12;73.36;100247.48;1705768;84;21271;-62
2022/02/03 22:11:00;;;;;;;28.57;16.90;;;;;;;1.06;73.45;100260.06;1705693;83;21369;-63
2022/02/03 22:14:05;;;;;;;29.50;18.10;;;;;;;1.02;73.36;100263.98;1705783;83;21346;-63
2022/02/03 22:17:12;;;;;;;29.60;17.90;;;;;;;0.95;73.33;100256.51;1705828;84;21390;-63
2022/02/03 22:20:25;;;;;;;25.85;17.17;;;;;;;0.90;73.37;100267.64;1705575;83;21378;-62
2022/02/03 22:47:20;;;;;;;26.95;17.05;;;;;;;0.50;74.07;100268.08;1743241;82;21355;-62
2022/02/03 22:50:15;;;;;;;27.13;17.80;;;;;;;0.45;74.22;100271.59;1741726;82;21385;-64
2022/02/03 22:53:20;;;;;;;25.55;15.63;;;;;;;0.43;74.35;100260.11;1715522;82;21370;-63
2022/02/03 22:56:25;;;;;;;25.92;17.05;;;;;;;0.45;74.53;100264.39;1735530;82;21443;-62
2022/02/03 23:02:37;;;;;;;26.97;16.65;;;;;;;0.46;74.35;100256.67;1743008;81;21326;-63
2022/02/03 23:05:42;;;;;;;27.62;18.10;;;;;;;0.44;74.46;100258.64;1741278;82;21263;-63
2022/02/03 23:12:10;;;;;;;26.40;17.30;;;;;;;0.57;74.52;100268.00;1743692;82;21335;-63
2022/02/03 23:22:10;;;;;;;29.82;18.52;;;;;;;0.46;73.86;100280.06;1743244;82;21353;-63
2022/02/03 23:25:01;;;;;;;27.58;17.90;;;;;;;0.46;74.06;100284.94;1743055;81;21727;-62
2022/02/03 23:28:28;;;;;;;32.13;19.02;;;;;;;0.47;73.92;100281.77;1745515;81;21357;-63
2022/02/03 23:31:24;;;;;;;31.15;17.87;;;;;;;0.46;73.92;100290.33;1743302;82;21820;-63
2022/02/03 23:34:31;;;;;;;31.00;19.12;;;;;;;0.48;74.04;100280.78;1744956;81;21207;-63
2022/02/03 23:37:39;;;;;;;30.37;19.02;;;;;;;0.48;73.91;100279.44;1745688;81;21385;-63
2022/02/03 23:44:11;;;;;;;27.60;16.95;;;;;;;0.52;73.99;100291.24;1745512;81;21199;-63
